الصفحة الرئيسية
METAR-TAF:

METAR-TAF

مطار :

كوكشيتو, كازاخستان

دائرة عرض: 53-19-48N, خط طول: 069-35-48E, ارتفاع: 270 متر

مراقبة الطقس الحالي

تاريخ ووقت الإصدار 1ساعة و 4 دقيقة قبل الساعة 17:00UTC
ريح 8 عقدة من الشمال/الشمال الغربي
درجة الحرارة 14°درجة مئوية
الرطوبة 94%
ضغط 1012 hPa
الرؤية 10 كم أو أكثر
الغيوم لا تقل 1500 م ولا وجود لمزنة ركامية السحاب الأسود

METAR: UACK 161700Z 33004MPS CAVOK 14/13 Q1012 R20/010070 NOSIG RMK QFE735/0981

زمن: 00:04 (18:04 UTC)

توقعات

تاريخ ووقت الإصدار 7ساعات و 4 دقيقة قبل الساعة 11:00UTC
التوقعات صالحة من16 الساعة 12 UTC إلى 16 الساعة 21 UTC
ريح 4 عقدةمن اتجاهات متغيرة
الرؤية 10 كم أو أكثر
غيوم متفرقة على ارتفاع 2000 قدم
غيوم مفككة على ارتفاع 3300 قدم
مؤقت
من 16 الساعة 12 UTC إلى 16 الساعة 21 UTC
ريح 12 عقدة من الشمال الغربي
الرؤية: 5000 متر
غيوم مفككة على ارتفاع 1500 قدم, مزنة ركامية.
زخات من الأمطار الخفيفة, غشاء

TAF: UACK 161100Z 1612/1621 VRB02MPS 9999 SCT020 BKN033 TEMPO 1612/1621 32006MPS 5000 -SHRA BR BKN015CB

أرصاد الطقس والتوقعات من أكثر من 4000 مطار (تقارير الطقس للمطار METAR والتنبؤ بالطقس بالمطارTAF).

المحطات المتاحة هي النقط الصفراء والحمراء على الخريطة.

حرك المؤشر فوق النقطة لمعرفة اسم المحطة.

ثم انقر لمعرفة أرصاد وتوقعات الطقس.

لتغيير الخارطة: اضغط على الأزرار الخضراء مع رمز الصليب الأسود للتكبير. على الزر الأخضر مع شرطة للتصغير، أو على الأسهم الخضراء للخرائط المجاورة.


METAR-TAF: